Airfield :
LOGIN :

Register | Disclaimer

   EN    FR    IT 

 










Legend :    VFR   Marginal VFR   IFR   Intensive IFR   Very Intensive IFR
Visi :
Ceiling :
>= 8 km
>= 3000ft
5 to 8 km
1000 to 3000 ft
1500m to 5 km
500 to 1000 ft
800 to 1500m
200 to 500 ft
< 800m
< 200 ft
Symbols :   Thunderstorms  Fog  Heavy snow  Heavy precipitations  Wind > 20 kt
SIGMETs :     Misc.  Thunderstorms  Icing  Turbulence  Mountain Waves  Volcanic Ashes






- Airport Elevation : 622 ft
- IATA code : SVO


UUEE - Sheremetyevo International

CURRENT METAR :
  • 190430Z 29006MPS 230V310 CAVOK 19/14 Q1013 R24L/CLRD62 R24C/CLRD62 NOSIG

EXPIRED METARs :
  • 190400Z 28006MPS CAVOK 18/14 Q1013 R24L/CLRD62 R24C/CLRD62 NOSIG
  • 190330Z 28005MPS CAVOK 17/15 Q1013 R24L/CLRD62 R24C/CLRD62 NOSIG
  • 190300Z 28005MPS CAVOK 17/15 Q1013 R24L/CLRD62 R24C/CLRD62 NOSIG
  • 190230Z 28005MPS CAVOK 17/15 Q1013 R24C/CLRD62 NOSIG
  • 190200Z 27004MPS CAVOK 16/15 Q1012 R24C/CLRD62 NOSIG
  • 190130Z 26003MPS 9999 FEW020 15/14 Q1012 R24C/CLRD62 NOSIG
  • 190100Z 26005MPS 9999 FEW035 16/14 Q1012 R24C/CLRD62 NOSIG
  • 190030Z 27003G09MPS 220V310 CAVOK 16/14 Q1012 R24C/CLRD62 NOSIG
  • 190000Z 27005MPS 9999 FEW027 16/15 Q1012 R24C/CLRD62 NOSIG
  • 182330Z 27005MPS 9999 FEW026 16/15 Q1012 R24C/CLRD62 NOSIG

TAF TAF UUEE
Valid from the 19 at 03:00 until the 20 at 03:00 UTC


190151Z 1903/2003 28003MPS 9999 SCT020 TX26/1912Z TN19/2002Z
BECMG 1912/1915 22006MPS



MET'MAP, your aeronautical weather chart ! - Copyright ORBIFLY December 2007 - Disclaimer

ORBIFLY MET'MAP TEAM :

Programming & Development : Alexandra Zaïnal
Original concept : Baudouin d'Aumeries
Technical & hardware support : Manuel Goepfert
Assistance : Marc-Olivier Méhu




SOURCES & CREDITS :

   NOAA